DVO weather

Francisco Bangoy International Airport
Davao City, Davao Province, Philippines

Public forecast

Using degrees Celsius for public forecast. Weather courtesy of forecast.io.

Current aviation weather report (METAR) for Francisco Bangoy International Airport

Retrieved 2020/07/03 13:00 UTC (31 minutes ago):

RPMD 031300Z 21003KT 9999 FEW016TCU SCT090 BKN290 27/25 Q1012 RMK A2988 TCU E S

Aviation forecast (TAF) for Francisco Bangoy International Airport

Retrieved 2020/07/03 12:45 UTC (46 minutes ago):

TAF RPMD 031100Z 0312/0412 21004KT 9999 FEW016 SCT090 BKN260 TEMPO 0315/0321 VRB02KT 8000 -RA FEW015CB BKN080 OVC260